sensor_id;sensor_type;location;lat;lon;timestamp;temperature;humidity
15991;DHT22;8100;50.994;4.538;2023-05-19T00:00:55;8.00;1.40
15991;DHT22;8100;50.994;4.538;2023-05-19T00:03:49;7.90;1.00
15991;DHT22;8100;50.994;4.538;2023-05-19T00:06:37;7.90;1.00
15991;DHT22;8100;50.994;4.538;2023-05-19T00:09:26;7.90;1.00
15991;DHT22;8100;50.994;4.538;2023-05-19T00:12:16;7.80;1.00
15991;DHT22;8100;50.994;4.538;2023-05-19T00:15:04;7.80;1.00
15991;DHT22;8100;50.994;4.538;2023-05-19T00:17:52;7.80;1.00
15991;DHT22;8100;50.994;4.538;2023-05-19T00:20:40;7.80;1.00
15991;DHT22;8100;50.994;4.538;2023-05-19T00:23:27;7.70;1.00
15991;DHT22;8100;50.994;4.538;2023-05-19T00:26:15;7.80;1.00
15991;DHT22;8100;50.994;4.538;2023-05-19T00:29:04;7.80;1.00
15991;DHT22;8100;50.994;4.538;2023-05-19T00:31:51;7.90;1.00
15991;DHT22;8100;50.994;4.538;2023-05-19T00:34:38;7.80;1.00
15991;DHT22;8100;50.994;4.538;2023-05-19T00:37:26;7.80;1.00
15991;DHT22;8100;50.994;4.538;2023-05-19T00:40:13;7.80;1.00
15991;DHT22;8100;50.994;4.538;2023-05-19T00:43:01;7.70;1.00
15991;DHT22;8100;50.994;4.538;2023-05-19T00:45:51;7.60;1.00
15991;DHT22;8100;50.994;4.538;2023-05-19T00:48:39;7.60;1.00
15991;DHT22;8100;50.994;4.538;2023-05-19T00:51:27;7.50;1.00
15991;DHT22;8100;50.994;4.538;2023-05-19T00:54:15;7.50;1.00
15991;DHT22;8100;50.994;4.538;2023-05-19T00:57:03;7.40;4.50
15991;DHT22;8100;50.994;4.538;2023-05-19T00:59:50;7.30;12.80
15991;DHT22;8100;50.994;4.538;2023-05-19T01:02:40;7.30;12.40
15991;DHT22;8100;50.994;4.538;2023-05-19T01:05:27;7.30;12.10
15991;DHT22;8100;50.994;4.538;2023-05-19T01:08:14;7.20;45.70
15991;DHT22;8100;50.994;4.538;2023-05-19T01:11:02;7.20;67.10
15991;DHT22;8100;50.994;4.538;2023-05-19T01:13:50;7.20;55.20
15991;DHT22;8100;50.994;4.538;2023-05-19T01:16:41;7.10;93.30
15991;DHT22;8100;50.994;4.538;2023-05-19T01:19:45;7.10;86.10
15991;DHT22;8100;50.994;4.538;2023-05-19T01:22:54;7.00;90.70
15991;DHT22;8100;50.994;4.538;2023-05-19T01:26:34;7.00;79.70
15991;DHT22;8100;50.994;4.538;2023-05-19T01:29:41;6.90;74.70
15991;DHT22;8100;50.994;4.538;2023-05-19T01:32:30;6.90;93.50
15991;DHT22;8100;50.994;4.538;2023-05-19T01:35:21;6.80;93.80
15991;DHT22;8100;50.994;4.538;2023-05-19T01:38:10;6.80;95.50
15991;DHT22;8100;50.994;4.538;2023-05-19T01:40:58;6.70;99.70
15991;DHT22;8100;50.994;4.538;2023-05-19T01:43:47;6.80;99.90
15991;DHT22;8100;50.994;4.538;2023-05-19T01:46:34;6.70;99.90
15991;DHT22;8100;50.994;4.538;2023-05-19T01:49:23;6.70;99.90
15991;DHT22;8100;50.994;4.538;2023-05-19T01:52:11;6.60;99.90
15991;DHT22;8100;50.994;4.538;2023-05-19T01:54:58;6.50;99.90
15991;DHT22;8100;50.994;4.538;2023-05-19T01:57:53;6.50;99.90
15991;DHT22;8100;50.994;4.538;2023-05-19T02:00:52;6.50;99.90
15991;DHT22;8100;50.994;4.538;2023-05-19T02:03:48;6.40;99.90
15991;DHT22;8100;50.994;4.538;2023-05-19T02:06:45;6.40;99.90
15991;DHT22;8100;50.994;4.538;2023-05-19T02:09:38;6.40;99.90
15991;DHT22;8100;50.994;4.538;2023-05-19T02:12:31;6.30;99.90
15991;DHT22;8100;50.994;4.538;2023-05-19T02:15:21;6.30;99.90
15991;DHT22;8100;50.994;4.538;2023-05-19T02:18:11;6.20;99.90
15991;DHT22;8100;50.994;4.538;2023-05-19T02:21:03;6.20;99.90
15991;DHT22;8100;50.994;4.538;2023-05-19T02:23:51;6.20;99.90
15991;DHT22;8100;50.994;4.538;2023-05-19T02:26:39;6.20;99.90
15991;DHT22;8100;50.994;4.538;2023-05-19T02:29:26;6.10;99.90
15991;DHT22;8100;50.994;4.538;2023-05-19T02:32:13;6.10;99.90
15991;DHT22;8100;50.994;4.538;2023-05-19T02:35:01;6.10;99.90
15991;DHT22;8100;50.994;4.538;2023-05-19T02:37:48;6.10;99.90
15991;DHT22;8100;50.994;4.538;2023-05-19T02:40:37;6.10;99.90
15991;DHT22;8100;50.994;4.538;2023-05-19T02:43:25;6.00;99.90
15991;DHT22;8100;50.994;4.538;2023-05-19T02:46:12;6.10;99.90
15991;DHT22;8100;50.994;4.538;2023-05-19T02:48:59;6.00;99.90
15991;DHT22;8100;50.994;4.538;2023-05-19T02:51:47;6.00;99.90
15991;DHT22;8100;50.994;4.538;2023-05-19T02:54:34;6.00;99.90
15991;DHT22;8100;50.994;4.538;2023-05-19T02:57:23;5.90;99.90
15991;DHT22;8100;50.994;4.538;2023-05-19T03:00:12;5.90;99.90
15991;DHT22;8100;50.994;4.538;2023-05-19T03:02:59;5.90;99.90
15991;DHT22;8100;50.994;4.538;2023-05-19T03:05:49;5.80;99.90
15991;DHT22;8100;50.994;4.538;2023-05-19T03:08:36;5.90;99.90
15991;DHT22;8100;50.994;4.538;2023-05-19T03:11:24;5.90;99.90
15991;DHT22;8100;50.994;4.538;2023-05-19T03:14:12;5.80;99.90
15991;DHT22;8100;50.994;4.538;2023-05-19T03:17:00;5.90;99.90
15991;DHT22;8100;50.994;4.538;2023-05-19T03:19:47;5.80;99.90
15991;DHT22;8100;50.994;4.538;2023-05-19T03:22:35;5.90;99.90
15991;DHT22;8100;50.994;4.538;2023-05-19T03:25:23;5.90;99.90
15991;DHT22;8100;50.994;4.538;2023-05-19T03:28:11;5.80;99.90
15991;DHT22;8100;50.994;4.538;2023-05-19T03:30:59;5.80;99.90
15991;DHT22;8100;50.994;4.538;2023-05-19T03:33:47;5.80;99.90
15991;DHT22;8100;50.994;4.538;2023-05-19T03:36:34;5.80;99.90
15991;DHT22;8100;50.994;4.538;2023-05-19T03:39:24;5.70;99.90
15991;DHT22;8100;50.994;4.538;2023-05-19T03:42:11;5.70;99.90
15991;DHT22;8100;50.994;4.538;2023-05-19T03:44:58;5.80;99.90
15991;DHT22;8100;50.994;4.538;2023-05-19T03:47:47;5.80;99.90
15991;DHT22;8100;50.994;4.538;2023-05-19T03:50:34;5.70;99.90
15991;DHT22;8100;50.994;4.538;2023-05-19T03:53:23;5.80;99.90
15991;DHT22;8100;50.994;4.538;2023-05-19T03:56:11;5.90;99.90
15991;DHT22;8100;50.994;4.538;2023-05-19T03:58:58;5.90;99.90
15991;DHT22;8100;50.994;4.538;2023-05-19T04:01:45;5.90;99.90
15991;DHT22;8100;50.994;4.538;2023-05-19T04:04:35;5.90;99.90
15991;DHT22;8100;50.994;4.538;2023-05-19T04:07:23;5.80;99.90
15991;DHT22;8100;50.994;4.538;2023-05-19T04:10:11;5.80;99.90
15991;DHT22;8100;50.994;4.538;2023-05-19T04:12:58;5.80;99.90
15991;DHT22;8100;50.994;4.538;2023-05-19T04:15:46;5.70;99.90
15991;DHT22;8100;50.994;4.538;2023-05-19T04:18:33;5.80;99.90
15991;DHT22;8100;50.994;4.538;2023-05-19T04:21:22;5.80;99.90
15991;DHT22;8100;50.994;4.538;2023-05-19T04:24:09;5.80;99.90
15991;DHT22;8100;50.994;4.538;2023-05-19T04:26:57;5.90;99.90
15991;DHT22;8100;50.994;4.538;2023-05-19T04:29:48;6.00;99.90
15991;DHT22;8100;50.994;4.538;2023-05-19T04:32:35;6.10;99.90
15991;DHT22;8100;50.994;4.538;2023-05-19T04:35:24;6.00;99.90
15991;DHT22;8100;50.994;4.538;2023-05-19T04:38:13;6.10;99.90
15991;DHT22;8100;50.994;4.538;2023-05-19T04:41:03;6.20;99.90
15991;DHT22;8100;50.994;4.538;2023-05-19T04:43:51;6.20;99.90
15991;DHT22;8100;50.994;4.538;2023-05-19T04:46:38;6.20;99.90
15991;DHT22;8100;50.994;4.538;2023-05-19T04:49:27;6.40;99.90
15991;DHT22;8100;50.994;4.538;2023-05-19T04:52:14;6.40;99.90
15991;DHT22;8100;50.994;4.538;2023-05-19T04:55:08;6.40;99.90
15991;DHT22;8100;50.994;4.538;2023-05-19T04:57:57;6.50;99.90
15991;DHT22;8100;50.994;4.538;2023-05-19T05:00:45;6.60;99.90
15991;DHT22;8100;50.994;4.538;2023-05-19T05:03:32;6.70;99.90
15991;DHT22;8100;50.994;4.538;2023-05-19T05:06:20;6.80;99.90
15991;DHT22;8100;50.994;4.538;2023-05-19T05:09:07;6.80;99.90
15991;DHT22;8100;50.994;4.538;2023-05-19T05:11:57;6.90;99.90
15991;DHT22;8100;50.994;4.538;2023-05-19T05:14:45;7.10;99.90
15991;DHT22;8100;50.994;4.538;2023-05-19T05:17:33;7.20;99.90
15991;DHT22;8100;50.994;4.538;2023-05-19T05:20:23;7.40;99.90
15991;DHT22;8100;50.994;4.538;2023-05-19T05:23:11;7.50;99.90
15991;DHT22;8100;50.994;4.538;2023-05-19T05:26:02;7.60;99.90
15991;DHT22;8100;50.994;4.538;2023-05-19T05:28:53;7.80;99.90
15991;DHT22;8100;50.994;4.538;2023-05-19T05:31:40;7.90;99.90
15991;DHT22;8100;50.994;4.538;2023-05-19T05:34:27;8.00;99.90
15991;DHT22;8100;50.994;4.538;2023-05-19T05:37:15;8.20;99.90
15991;DHT22;8100;50.994;4.538;2023-05-19T05:40:02;8.30;93.10
15991;DHT22;8100;50.994;4.538;2023-05-19T05:42:51;8.40;93.20
15991;DHT22;8100;50.994;4.538;2023-05-19T05:45:41;8.50;29.30
15991;DHT22;8100;50.994;4.538;2023-05-19T05:48:29;8.60;2.40
15991;DHT22;8100;50.994;4.538;2023-05-19T05:51:17;8.80;4.80
15991;DHT22;8100;50.994;4.538;2023-05-19T05:54:08;8.90;1.00
15991;DHT22;8100;50.994;4.538;2023-05-19T05:56:58;9.00;1.00
15991;DHT22;8100;50.994;4.538;2023-05-19T05:59:45;9.00;1.00
15991;DHT22;8100;50.994;4.538;2023-05-19T06:02:34;9.10;1.00
15991;DHT22;8100;50.994;4.538;2023-05-19T06:05:23;9.30;1.00
15991;DHT22;8100;50.994;4.538;2023-05-19T06:08:10;9.50;1.00
15991;DHT22;8100;50.994;4.538;2023-05-19T06:10:58;9.60;1.00
15991;DHT22;8100;50.994;4.538;2023-05-19T06:13:45;9.70;1.00
15991;DHT22;8100;50.994;4.538;2023-05-19T06:16:32;9.90;1.00
15991;DHT22;8100;50.994;4.538;2023-05-19T06:19:21;9.90;1.00
15991;DHT22;8100;50.994;4.538;2023-05-19T06:22:10;10.10;1.00
15991;DHT22;8100;50.994;4.538;2023-05-19T06:24:57;10.30;1.00
15991;DHT22;8100;50.994;4.538;2023-05-19T06:27:44;10.40;1.00
15991;DHT22;8100;50.994;4.538;2023-05-19T06:30:32;10.50;1.00
15991;DHT22;8100;50.994;4.538;2023-05-19T06:33:19;10.50;1.00
15991;DHT22;8100;50.994;4.538;2023-05-19T06:36:08;10.50;1.00
15991;DHT22;8100;50.994;4.538;2023-05-19T06:38:56;10.60;1.00
15991;DHT22;8100;50.994;4.538;2023-05-19T06:41:44;10.80;1.00
15991;DHT22;8100;50.994;4.538;2023-05-19T06:44:31;10.80;1.00
15991;DHT22;8100;50.994;4.538;2023-05-19T06:47:18;10.90;1.00
15991;DHT22;8100;50.994;4.538;2023-05-19T06:50:06;11.10;1.00
15991;DHT22;8100;50.994;4.538;2023-05-19T06:52:55;11.30;1.00
15991;DHT22;8100;50.994;4.538;2023-05-19T06:55:44;11.40;1.00
15991;DHT22;8100;50.994;4.538;2023-05-19T06:58:31;11.70;1.00
15991;DHT22;8100;50.994;4.538;2023-05-19T07:01:18;11.70;1.00
15991;DHT22;8100;50.994;4.538;2023-05-19T07:04:06;11.60;1.00
15991;DHT22;8100;50.994;4.538;2023-05-19T07:06:53;11.80;1.00
15991;DHT22;8100;50.994;4.538;2023-05-19T07:09:42;12.20;1.00
15991;DHT22;8100;50.994;4.538;2023-05-19T07:12:29;12.00;1.00
15991;DHT22;8100;50.994;4.538;2023-05-19T07:15:16;12.20;1.00
15991;DHT22;8100;50.994;4.538;2023-05-19T07:18:04;12.50;1.00
15991;DHT22;8100;50.994;4.538;2023-05-19T07:20:51;12.80;99.90
15991;DHT22;8100;50.994;4.538;2023-05-19T07:23:38;12.90;99.90
15991;DHT22;8100;50.994;4.538;2023-05-19T07:26:28;13.00;1.00
15991;DHT22;8100;50.994;4.538;2023-05-19T07:29:15;13.00;1.00
15991;DHT22;8100;50.994;4.538;2023-05-19T07:32:03;13.00;1.00
15991;DHT22;8100;50.994;4.538;2023-05-19T07:34:51;13.00;99.90
15991;DHT22;8100;50.994;4.538;2023-05-19T07:37:38;13.10;99.90
15991;DHT22;8100;50.994;4.538;2023-05-19T07:40:25;13.20;1.00
15991;DHT22;8100;50.994;4.538;2023-05-19T07:43:14;13.20;99.90
15991;DHT22;8100;50.994;4.538;2023-05-19T07:46:01;13.50;1.00
15991;DHT22;8100;50.994;4.538;2023-05-19T07:48:49;13.60;99.90
15991;DHT22;8100;50.994;4.538;2023-05-19T07:51:36;13.70;1.00
15991;DHT22;8100;50.994;4.538;2023-05-19T07:54:23;13.60;1.00
15991;DHT22;8100;50.994;4.538;2023-05-19T07:57:11;13.60;1.00
15991;DHT22;8100;50.994;4.538;2023-05-19T08:00:00;13.60;1.00
15991;DHT22;8100;50.994;4.538;2023-05-19T08:02:52;13.80;25.40
15991;DHT22;8100;50.994;4.538;2023-05-19T08:05:41;14.00;1.00
15991;DHT22;8100;50.994;4.538;2023-05-19T08:08:28;14.30;99.90
15991;DHT22;8100;50.994;4.538;2023-05-19T08:11:18;14.30;1.00
15991;DHT22;8100;50.994;4.538;2023-05-19T08:14:06;14.50;1.00
15991;DHT22;8100;50.994;4.538;2023-05-19T08:16:54;14.40;1.00
15991;DHT22;8100;50.994;4.538;2023-05-19T08:19:42;14.60;1.00
15991;DHT22;8100;50.994;4.538;2023-05-19T08:22:29;14.90;1.00
15991;DHT22;8100;50.994;4.538;2023-05-19T08:25:16;15.00;1.00
15991;DHT22;8100;50.994;4.538;2023-05-19T08:28:04;15.50;1.00
15991;DHT22;8100;50.994;4.538;2023-05-19T08:30:51;15.70;99.90
15991;DHT22;8100;50.994;4.538;2023-05-19T08:33:40;15.60;1.00
15991;DHT22;8100;50.994;4.538;2023-05-19T08:36:27;15.70;1.00
15991;DHT22;8100;50.994;4.538;2023-05-19T08:39:15;15.90;1.00
15991;DHT22;8100;50.994;4.538;2023-05-19T08:42:04;15.70;1.00
15991;DHT22;8100;50.994;4.538;2023-05-19T08:44:54;15.80;1.00
15991;DHT22;8100;50.994;4.538;2023-05-19T08:47:44;15.70;99.90
15991;DHT22;8100;50.994;4.538;2023-05-19T08:50:38;15.90;1.00
15991;DHT22;8100;50.994;4.538;2023-05-19T08:53:28;16.10;45.20
15991;DHT22;8100;50.994;4.538;2023-05-19T08:56:20;16.20;99.90
15991;DHT22;8100;50.994;4.538;2023-05-19T08:59:07;16.30;1.00
15991;DHT22;8100;50.994;4.538;2023-05-19T09:01:55;16.40;99.90
15991;DHT22;8100;50.994;4.538;2023-05-19T09:04:43;16.40;1.00
15991;DHT22;8100;50.994;4.538;2023-05-19T09:07:35;16.20;98.80
15991;DHT22;8100;50.994;4.538;2023-05-19T09:10:23;16.40;47.00
15991;DHT22;8100;50.994;4.538;2023-05-19T09:13:10;16.80;99.90
15991;DHT22;8100;50.994;4.538;2023-05-19T09:15:59;16.70;1.00
15991;DHT22;8100;50.994;4.538;2023-05-19T09:18:53;16.90;99.90
15991;DHT22;8100;50.994;4.538;2023-05-19T09:21:41;17.10;99.90
15991;DHT22;8100;50.994;4.538;2023-05-19T09:24:33;17.40;1.00
15991;DHT22;8100;50.994;4.538;2023-05-19T09:27:21;17.40;1.00
15991;DHT22;8100;50.994;4.538;2023-05-19T09:30:09;17.70;1.00
15991;DHT22;8100;50.994;4.538;2023-05-19T09:32:56;17.70;1.00
15991;DHT22;8100;50.994;4.538;2023-05-19T09:35:46;17.40;1.00
15991;DHT22;8100;50.994;4.538;2023-05-19T09:38:34;17.70;1.00
15991;DHT22;8100;50.994;4.538;2023-05-19T09:41:23;17.70;1.00
15991;DHT22;8100;50.994;4.538;2023-05-19T09:44:21;17.90;1.00
15991;DHT22;8100;50.994;4.538;2023-05-19T09:47:09;17.90;41.90
15991;DHT22;8100;50.994;4.538;2023-05-19T09:49:56;17.70;37.30
15991;DHT22;8100;50.994;4.538;2023-05-19T09:52:43;17.90;1.00
15991;DHT22;8100;50.994;4.538;2023-05-19T09:55:31;17.90;1.00
15991;DHT22;8100;50.994;4.538;2023-05-19T09:58:20;18.00;99.90
15991;DHT22;8100;50.994;4.538;2023-05-19T10:01:09;18.50;1.00
15991;DHT22;8100;50.994;4.538;2023-05-19T10:03:57;18.70;99.90
15991;DHT22;8100;50.994;4.538;2023-05-19T10:06:44;18.20;99.90
15991;DHT22;8100;50.994;4.538;2023-05-19T10:09:33;18.20;99.90
15991;DHT22;8100;50.994;4.538;2023-05-19T10:12:24;17.80;99.90
15991;DHT22;8100;50.994;4.538;2023-05-19T10:15:14;17.70;1.00
15991;DHT22;8100;50.994;4.538;2023-05-19T10:18:02;17.70;1.00
15991;DHT22;8100;50.994;4.538;2023-05-19T10:20:51;17.50;93.20
15991;DHT22;8100;50.994;4.538;2023-05-19T10:23:38;17.60;99.90
15991;DHT22;8100;50.994;4.538;2023-05-19T10:26:26;17.90;1.00
15991;DHT22;8100;50.994;4.538;2023-05-19T10:29:18;18.40;99.90
15991;DHT22;8100;50.994;4.538;2023-05-19T10:32:16;18.20;99.90
15991;DHT22;8100;50.994;4.538;2023-05-19T10:35:19;17.70;1.00
15991;DHT22;8100;50.994;4.538;2023-05-19T10:38:16;17.90;1.00
15991;DHT22;8100;50.994;4.538;2023-05-19T10:41:10;18.30;1.00
15991;DHT22;8100;50.994;4.538;2023-05-19T10:44:08;18.80;1.00
15991;DHT22;8100;50.994;4.538;2023-05-19T10:46:55;19.30;1.00
15991;DHT22;8100;50.994;4.538;2023-05-19T10:49:44;19.70;1.00
15991;DHT22;8100;50.994;4.538;2023-05-19T10:52:36;19.70;1.00
15991;DHT22;8100;50.994;4.538;2023-05-19T10:55:46;18.90;1.00
15991;DHT22;8100;50.994;4.538;2023-05-19T10:58:38;19.00;1.00
15991;DHT22;8100;50.994;4.538;2023-05-19T11:01:31;19.00;1.00
15991;DHT22;8100;50.994;4.538;2023-05-19T11:04:18;19.10;1.00
15991;DHT22;8100;50.994;4.538;2023-05-19T11:07:25;19.20;1.00
15991;DHT22;8100;50.994;4.538;2023-05-19T11:10:21;19.70;1.00
15991;DHT22;8100;50.994;4.538;2023-05-19T11:13:18;19.80;1.00
15991;DHT22;8100;50.994;4.538;2023-05-19T11:16:06;19.30;1.00
15991;DHT22;8100;50.994;4.538;2023-05-19T11:18:54;19.00;6.90
15991;DHT22;8100;50.994;4.538;2023-05-19T11:21:46;18.70;1.00
15991;DHT22;8100;50.994;4.538;2023-05-19T11:24:37;18.30;99.90
15991;DHT22;8100;50.994;4.538;2023-05-19T11:27:27;18.40;51.90
15991;DHT22;8100;50.994;4.538;2023-05-19T11:30:16;18.50;1.00
15991;DHT22;8100;50.994;4.538;2023-05-19T11:33:05;18.90;99.90
15991;DHT22;8100;50.994;4.538;2023-05-19T11:35:53;19.20;1.00
15991;DHT22;8100;50.994;4.538;2023-05-19T11:38:44;19.60;99.90
15991;DHT22;8100;50.994;4.538;2023-05-19T11:41:37;19.80;24.40
15991;DHT22;8100;50.994;4.538;2023-05-19T11:44:25;19.90;1.00
15991;DHT22;8100;50.994;4.538;2023-05-19T11:47:13;20.00;1.00
15991;DHT22;8100;50.994;4.538;2023-05-19T11:50:01;19.80;1.00
15991;DHT22;8100;50.994;4.538;2023-05-19T11:52:49;20.10;1.00
15991;DHT22;8100;50.994;4.538;2023-05-19T11:55:41;20.00;1.00
15991;DHT22;8100;50.994;4.538;2023-05-19T11:58:30;20.00;1.00
15991;DHT22;8100;50.994;4.538;2023-05-19T12:01:18;19.40;1.00
15991;DHT22;8100;50.994;4.538;2023-05-19T12:04:07;19.30;1.00
15991;DHT22;8100;50.994;4.538;2023-05-19T12:06:54;19.60;99.90
15991;DHT22;8100;50.994;4.538;2023-05-19T12:09:42;19.90;1.00
15991;DHT22;8100;50.994;4.538;2023-05-19T12:12:31;20.10;1.00
15991;DHT22;8100;50.994;4.538;2023-05-19T12:15:20;19.90;99.90
15991;DHT22;8100;50.994;4.538;2023-05-19T12:18:07;19.50;1.00
15991;DHT22;8100;50.994;4.538;2023-05-19T12:20:55;19.30;1.00
15991;DHT22;8100;50.994;4.538;2023-05-19T12:23:42;19.50;1.00
15991;DHT22;8100;50.994;4.538;2023-05-19T12:26:30;19.60;1.00
15991;DHT22;8100;50.994;4.538;2023-05-19T12:29:17;19.60;1.00
15991;DHT22;8100;50.994;4.538;2023-05-19T12:32:06;19.30;1.00
15991;DHT22;8100;50.994;4.538;2023-05-19T12:34:55;19.30;1.00
15991;DHT22;8100;50.994;4.538;2023-05-19T12:37:42;19.40;1.00
15991;DHT22;8100;50.994;4.538;2023-05-19T12:40:30;19.50;1.00
15991;DHT22;8100;50.994;4.538;2023-05-19T12:43:20;19.50;1.00
15991;DHT22;8100;50.994;4.538;2023-05-19T12:46:11;19.50;1.00
15991;DHT22;8100;50.994;4.538;2023-05-19T12:49:00;19.40;99.90
15991;DHT22;8100;50.994;4.538;2023-05-19T12:51:51;19.70;1.00
15991;DHT22;8100;50.994;4.538;2023-05-19T12:54:38;19.60;1.00
15991;DHT22;8100;50.994;4.538;2023-05-19T12:57:25;19.60;1.00
15991;DHT22;8100;50.994;4.538;2023-05-19T13:00:15;19.70;1.00
15991;DHT22;8100;50.994;4.538;2023-05-19T13:03:07;19.90;1.00
15991;DHT22;8100;50.994;4.538;2023-05-19T13:05:56;20.00;1.00
15991;DHT22;8100;50.994;4.538;2023-05-19T13:08:45;19.90;1.00
15991;DHT22;8100;50.994;4.538;2023-05-19T13:11:33;20.10;5.10
15991;DHT22;8100;50.994;4.538;2023-05-19T13:14:20;20.20;33.60
15991;DHT22;8100;50.994;4.538;2023-05-19T13:17:08;20.40;1.00
15991;DHT22;8100;50.994;4.538;2023-05-19T13:19:55;20.00;1.00
15991;DHT22;8100;50.994;4.538;2023-05-19T13:22:44;20.20;1.00
15991;DHT22;8100;50.994;4.538;2023-05-19T13:25:31;20.40;1.00
15991;DHT22;8100;50.994;4.538;2023-05-19T13:28:19;20.30;1.00
15991;DHT22;8100;50.994;4.538;2023-05-19T13:31:07;20.50;31.90
15991;DHT22;8100;50.994;4.538;2023-05-19T13:33:54;21.20;99.90
15991;DHT22;8100;50.994;4.538;2023-05-19T13:36:41;21.50;99.90
15991;DHT22;8100;50.994;4.538;2023-05-19T13:39:34;20.90;1.00
15991;DHT22;8100;50.994;4.538;2023-05-19T13:42:21;20.90;99.90
15991;DHT22;8100;50.994;4.538;2023-05-19T13:45:09;22.20;99.90
15991;DHT22;8100;50.994;4.538;2023-05-19T13:47:56;25.60;1.00
15991;DHT22;8100;50.994;4.538;2023-05-19T13:50:44;28.80;99.90
15991;DHT22;8100;50.994;4.538;2023-05-19T13:53:31;28.10;99.90
15991;DHT22;8100;50.994;4.538;2023-05-19T13:56:20;27.30;99.90
15991;DHT22;8100;50.994;4.538;2023-05-19T13:59:08;24.20;99.90
15991;DHT22;8100;50.994;4.538;2023-05-19T14:01:55;25.00;1.00
15991;DHT22;8100;50.994;4.538;2023-05-19T14:04:43;24.50;99.90
15991;DHT22;8100;50.994;4.538;2023-05-19T14:07:31;25.90;1.00
15991;DHT22;8100;50.994;4.538;2023-05-19T14:10:19;27.80;1.00
15991;DHT22;8100;50.994;4.538;2023-05-19T14:13:08;29.20;1.00
15991;DHT22;8100;50.994;4.538;2023-05-19T14:15:57;27.70;99.90
15991;DHT22;8100;50.994;4.538;2023-05-19T14:18:44;25.70;1.00
15991;DHT22;8100;50.994;4.538;2023-05-19T14:21:32;26.40;1.00
15991;DHT22;8100;50.994;4.538;2023-05-19T14:24:19;28.20;1.00
15991;DHT22;8100;50.994;4.538;2023-05-19T14:27:06;29.60;1.00
15991;DHT22;8100;50.994;4.538;2023-05-19T14:29:58;29.80;1.00
15991;DHT22;8100;50.994;4.538;2023-05-19T14:32:45;29.00;1.00
15991;DHT22;8100;50.994;4.538;2023-05-19T14:35:32;27.00;21.50
15991;DHT22;8100;50.994;4.538;2023-05-19T14:38:19;27.20;1.00
15991;DHT22;8100;50.994;4.538;2023-05-19T14:41:07;28.20;1.00
15991;DHT22;8100;50.994;4.538;2023-05-19T14:43:54;28.30;99.90
15991;DHT22;8100;50.994;4.538;2023-05-19T14:46:43;28.90;1.00
15991;DHT22;8100;50.994;4.538;2023-05-19T14:49:30;28.40;99.90
15991;DHT22;8100;50.994;4.538;2023-05-19T14:52:17;27.70;1.00
15991;DHT22;8100;50.994;4.538;2023-05-19T14:55:05;28.50;99.90
15991;DHT22;8100;50.994;4.538;2023-05-19T14:57:52;28.80;1.00
15991;DHT22;8100;50.994;4.538;2023-05-19T15:00:39;29.00;99.90
15991;DHT22;8100;50.994;4.538;2023-05-19T15:03:28;26.90;1.00
15991;DHT22;8100;50.994;4.538;2023-05-19T15:06:16;27.20;1.00
15991;DHT22;8100;50.994;4.538;2023-05-19T15:09:07;29.10;1.00
15991;DHT22;8100;50.994;4.538;2023-05-19T15:11:54;29.20;1.00
15991;DHT22;8100;50.994;4.538;2023-05-19T15:14:41;30.30;1.00
15991;DHT22;8100;50.994;4.538;2023-05-19T15:17:29;27.40;1.00
15991;DHT22;8100;50.994;4.538;2023-05-19T15:20:28;25.90;99.90
15991;DHT22;8100;50.994;4.538;2023-05-19T15:23:16;25.70;1.00
15991;DHT22;8100;50.994;4.538;2023-05-19T15:26:04;26.10;1.00
15991;DHT22;8100;50.994;4.538;2023-05-19T15:28:51;26.80;1.00
15991;DHT22;8100;50.994;4.538;2023-05-19T15:31:39;28.30;1.00
15991;DHT22;8100;50.994;4.538;2023-05-19T15:34:26;29.90;1.00
15991;DHT22;8100;50.994;4.538;2023-05-19T15:37:15;29.90;1.00
15991;DHT22;8100;50.994;4.538;2023-05-19T15:40:02;28.90;1.00
15991;DHT22;8100;50.994;4.538;2023-05-19T15:42:50;27.50;1.00
15991;DHT22;8100;50.994;4.538;2023-05-19T15:45:37;27.60;1.00
15991;DHT22;8100;50.994;4.538;2023-05-19T15:48:26;27.40;99.90
15991;DHT22;8100;50.994;4.538;2023-05-19T15:51:13;28.50;99.90
15991;DHT22;8100;50.994;4.538;2023-05-19T15:54:02;28.40;99.90
15991;DHT22;8100;50.994;4.538;2023-05-19T15:56:49;28.00;99.90
15991;DHT22;8100;50.994;4.538;2023-05-19T15:59:37;28.40;99.90
15991;DHT22;8100;50.994;4.538;2023-05-19T16:02:24;28.20;99.90
15991;DHT22;8100;50.994;4.538;2023-05-19T16:05:11;26.60;56.50
15991;DHT22;8100;50.994;4.538;2023-05-19T16:07:59;26.30;77.00
15991;DHT22;8100;50.994;4.538;2023-05-19T16:10:48;26.10;99.90
15991;DHT22;8100;50.994;4.538;2023-05-19T16:13:35;26.60;1.00
15991;DHT22;8100;50.994;4.538;2023-05-19T16:16:22;25.90;1.00
15991;DHT22;8100;50.994;4.538;2023-05-19T16:19:10;26.40;99.90
15991;DHT22;8100;50.994;4.538;2023-05-19T16:21:57;27.20;99.90
15991;DHT22;8100;50.994;4.538;2023-05-19T16:24:45;27.00;99.90
15991;DHT22;8100;50.994;4.538;2023-05-19T16:27:34;26.80;99.90
15991;DHT22;8100;50.994;4.538;2023-05-19T16:30:21;24.30;72.70
15991;DHT22;8100;50.994;4.538;2023-05-19T16:33:09;22.60;99.90
15991;DHT22;8100;50.994;4.538;2023-05-19T16:35:56;21.50;99.90
15991;DHT22;8100;50.994;4.538;2023-05-19T16:38:44;21.20;99.90
15991;DHT22;8100;50.994;4.538;2023-05-19T16:41:32;20.90;99.90
15991;DHT22;8100;50.994;4.538;2023-05-19T16:44:20;20.80;99.90
15991;DHT22;8100;50.994;4.538;2023-05-19T16:47:09;20.40;25.60
15991;DHT22;8100;50.994;4.538;2023-05-19T16:49:56;20.40;27.90
15991;DHT22;8100;50.994;4.538;2023-05-19T16:52:44;20.40;13.50
15991;DHT22;8100;50.994;4.538;2023-05-19T16:55:31;20.50;76.00
15991;DHT22;8100;50.994;4.538;2023-05-19T16:58:19;20.50;71.00
15991;DHT22;8100;50.994;4.538;2023-05-19T17:01:08;20.30;53.50
15991;DHT22;8100;50.994;4.538;2023-05-19T17:03:55;20.30;13.40
15991;DHT22;8100;50.994;4.538;2023-05-19T17:06:42;20.30;67.80
15991;DHT22;8100;50.994;4.538;2023-05-19T17:09:31;20.30;99.90
15991;DHT22;8100;50.994;4.538;2023-05-19T17:12:18;20.30;99.90
15991;DHT22;8100;50.994;4.538;2023-05-19T17:15:06;20.10;85.00
15991;DHT22;8100;50.994;4.538;2023-05-19T17:17:55;19.80;99.90
15991;DHT22;8100;50.994;4.538;2023-05-19T17:20:42;19.80;54.10
15991;DHT22;8100;50.994;4.538;2023-05-19T17:23:30;19.80;99.90
15991;DHT22;8100;50.994;4.538;2023-05-19T17:26:17;19.80;99.90
15991;DHT22;8100;50.994;4.538;2023-05-19T17:29:04;19.60;61.40
15991;DHT22;8100;50.994;4.538;2023-05-19T17:31:52;19.50;99.90
15991;DHT22;8100;50.994;4.538;2023-05-19T17:34:40;19.50;99.90
15991;DHT22;8100;50.994;4.538;2023-05-19T17:37:28;19.40;99.90
15991;DHT22;8100;50.994;4.538;2023-05-19T17:40:15;19.30;99.90
15991;DHT22;8100;50.994;4.538;2023-05-19T17:43:02;19.20;99.90
15991;DHT22;8100;50.994;4.538;2023-05-19T17:45:50;19.30;99.90
15991;DHT22;8100;50.994;4.538;2023-05-19T17:48:38;19.20;99.90
15991;DHT22;8100;50.994;4.538;2023-05-19T17:51:27;19.10;99.90
15991;DHT22;8100;50.994;4.538;2023-05-19T17:54:15;19.10;99.90
15991;DHT22;8100;50.994;4.538;2023-05-19T17:57:06;18.90;99.90
15991;DHT22;8100;50.994;4.538;2023-05-19T17:59:57;18.80;99.90
15991;DHT22;8100;50.994;4.538;2023-05-19T18:02:45;18.80;99.90
15991;DHT22;8100;50.994;4.538;2023-05-19T18:05:32;18.60;99.90
15991;DHT22;8100;50.994;4.538;2023-05-19T18:08:22;18.60;99.90
15991;DHT22;8100;50.994;4.538;2023-05-19T18:11:09;18.60;99.90
15991;DHT22;8100;50.994;4.538;2023-05-19T18:13:58;18.50;99.90
15991;DHT22;8100;50.994;4.538;2023-05-19T18:16:45;18.40;99.90
15991;DHT22;8100;50.994;4.538;2023-05-19T18:19:34;18.40;99.90